sensor_id;sensor_type;location;lat;lon;timestamp;pressure;altitude;pressure_sealevel;temperature;humidity
75172;BME280;63750;52.418;20.742;2023-02-24T00:01:50;99876.83;;;6.45;58.84
75172;BME280;63750;52.418;20.742;2023-02-24T00:04:19;99874.96;;;6.48;58.87
75172;BME280;63750;52.418;20.742;2023-02-24T00:06:47;99870.19;;;6.51;58.87
75172;BME280;63750;52.418;20.742;2023-02-24T00:09:16;99867.36;;;6.53;59.07
75172;BME280;63750;52.418;20.742;2023-02-24T00:11:47;99861.20;;;6.53;58.78
75172;BME280;63750;52.418;20.742;2023-02-24T00:14:15;99856.67;;;6.50;58.88
75172;BME280;63750;52.418;20.742;2023-02-24T00:16:43;99853.55;;;6.49;58.99
75172;BME280;63750;52.418;20.742;2023-02-24T00:19:13;99851.35;;;6.49;58.78
75172;BME280;63750;52.418;20.742;2023-02-24T00:21:40;99848.30;;;6.49;59.12
75172;BME280;63750;52.418;20.742;2023-02-24T00:24:09;99841.33;;;6.53;59.27
75172;BME280;63750;52.418;20.742;2023-02-24T00:26:37;99837.92;;;6.58;59.34
75172;BME280;63750;52.418;20.742;2023-02-24T00:29:06;99830.38;;;6.64;59.43
75172;BME280;63750;52.418;20.742;2023-02-24T00:31:33;99821.37;;;6.66;58.99
75172;BME280;63750;52.418;20.742;2023-02-24T00:34:01;99813.81;;;6.66;59.22
75172;BME280;63750;52.418;20.742;2023-02-24T00:36:30;99808.80;;;6.69;58.88
75172;BME280;63750;52.418;20.742;2023-02-24T00:39:00;99800.80;;;6.66;59.23
75172;BME280;63750;52.418;20.742;2023-02-24T00:41:30;99798.23;;;6.65;59.23
75172;BME280;63750;52.418;20.742;2023-02-24T00:43:59;99798.88;;;6.66;59.13
75172;BME280;63750;52.418;20.742;2023-02-24T00:46:27;99799.24;;;6.64;59.35
75172;BME280;63750;52.418;20.742;2023-02-24T00:48:54;99797.30;;;6.66;59.23
75172;BME280;63750;52.418;20.742;2023-02-24T00:51:23;99794.83;;;6.68;59.36
75172;BME280;63750;52.418;20.742;2023-02-24T00:53:52;99795.26;;;6.67;59.12
75172;BME280;63750;52.418;20.742;2023-02-24T00:56:20;99789.33;;;6.64;59.42
75172;BME280;63750;52.418;20.742;2023-02-24T00:58:48;99786.02;;;6.66;59.51
75172;BME280;63750;52.418;20.742;2023-02-24T01:01:17;99778.71;;;6.65;59.66
75172;BME280;63750;52.418;20.742;2023-02-24T01:03:46;99779.62;;;6.62;59.61
75172;BME280;63750;52.418;20.742;2023-02-24T01:06:14;99772.70;;;6.63;59.58
75172;BME280;63750;52.418;20.742;2023-02-24T01:08:42;99769.92;;;6.63;59.72
75172;BME280;63750;52.418;20.742;2023-02-24T01:11:10;99766.68;;;6.61;59.96
75172;BME280;63750;52.418;20.742;2023-02-24T01:13:37;99765.63;;;6.61;59.97
75172;BME280;63750;52.418;20.742;2023-02-24T01:16:05;99766.97;;;6.62;59.93
75172;BME280;63750;52.418;20.742;2023-02-24T01:18:33;99759.81;;;6.61;59.89
75172;BME280;63750;52.418;20.742;2023-02-24T01:21:00;99753.19;;;6.63;60.18
75172;BME280;63750;52.418;20.742;2023-02-24T01:23:28;99746.70;;;6.58;60.47
75172;BME280;63750;52.418;20.742;2023-02-24T01:25:55;99743.09;;;6.59;60.42
75172;BME280;63750;52.418;20.742;2023-02-24T01:28:22;99733.88;;;6.62;60.41
75172;BME280;63750;52.418;20.742;2023-02-24T01:30:50;99738.73;;;6.63;60.30
75172;BME280;63750;52.418;20.742;2023-02-24T01:33:17;99729.89;;;6.66;60.55
75172;BME280;63750;52.418;20.742;2023-02-24T01:35:45;99725.65;;;6.70;60.60
75172;BME280;63750;52.418;20.742;2023-02-24T01:38:12;99723.61;;;6.69;60.55
75172;BME280;63750;52.418;20.742;2023-02-24T01:40:39;99721.33;;;6.69;60.70
75172;BME280;63750;52.418;20.742;2023-02-24T01:43:09;99718.52;;;6.71;60.73
75172;BME280;63750;52.418;20.742;2023-02-24T01:45:37;99720.30;;;6.73;60.65
75172;BME280;63750;52.418;20.742;2023-02-24T01:48:07;99715.66;;;6.74;60.65
75172;BME280;63750;52.418;20.742;2023-02-24T01:50:36;99711.52;;;6.72;61.12
75172;BME280;63750;52.418;20.742;2023-02-24T01:53:06;99705.77;;;6.76;60.96
75172;BME280;63750;52.418;20.742;2023-02-24T01:55:36;99704.77;;;6.80;61.01
75172;BME280;63750;52.418;20.742;2023-02-24T01:58:10;99695.31;;;6.83;61.06
75172;BME280;63750;52.418;20.742;2023-02-24T02:00:40;99689.05;;;6.87;61.28
75172;BME280;63750;52.418;20.742;2023-02-24T02:03:15;99684.73;;;6.88;61.14
75172;BME280;63750;52.418;20.742;2023-02-24T02:05:44;99679.98;;;6.87;61.26
75172;BME280;63750;52.418;20.742;2023-02-24T02:08:12;99674.64;;;6.90;61.24
75172;BME280;63750;52.418;20.742;2023-02-24T02:10:40;99675.98;;;6.93;61.04
75172;BME280;63750;52.418;20.742;2023-02-24T02:13:08;99671.34;;;6.96;61.20
75172;BME280;63750;52.418;20.742;2023-02-24T02:15:41;99669.21;;;6.94;61.39
75172;BME280;63750;52.418;20.742;2023-02-24T02:18:17;99666.15;;;6.95;61.47
75172;BME280;63750;52.418;20.742;2023-02-24T02:21:17;99670.77;;;6.97;61.55
75172;BME280;63750;52.418;20.742;2023-02-24T02:24:17;99671.17;;;7.00;61.75
75172;BME280;63750;52.418;20.742;2023-02-24T02:30:18;99669.02;;;7.12;61.82
75172;BME280;63750;52.418;20.742;2023-02-24T02:33:18;99664.59;;;7.21;61.97
75172;BME280;63750;52.418;20.742;2023-02-24T02:35:58;99663.50;;;7.21;62.37
75172;BME280;63750;52.418;20.742;2023-02-24T02:38:33;99657.38;;;7.27;62.31
75172;BME280;63750;52.418;20.742;2023-02-24T02:41:10;99652.39;;;7.27;62.37
75172;BME280;63750;52.418;20.742;2023-02-24T02:43:44;99650.59;;;7.30;62.41
75172;BME280;63750;52.418;20.742;2023-02-24T02:46:18;99642.61;;;7.32;62.50
75172;BME280;63750;52.418;20.742;2023-02-24T02:48:53;99641.97;;;7.30;62.71
75172;BME280;63750;52.418;20.742;2023-02-24T02:51:27;99639.84;;;7.28;62.95
75172;BME280;63750;52.418;20.742;2023-02-24T02:53:59;99631.08;;;7.25;63.10
75172;BME280;63750;52.418;20.742;2023-02-24T02:56:31;99632.11;;;7.24;63.18
75172;BME280;63750;52.418;20.742;2023-02-24T02:59:00;99628.86;;;7.24;63.46
75172;BME280;63750;52.418;20.742;2023-02-24T03:01:32;99629.65;;;7.26;63.70
75172;BME280;63750;52.418;20.742;2023-02-24T03:04:03;99631.61;;;7.27;63.86
75172;BME280;63750;52.418;20.742;2023-02-24T03:06:34;99624.66;;;7.26;64.00
75172;BME280;63750;52.418;20.742;2023-02-24T03:09:07;99624.02;;;7.25;64.21
75172;BME280;63750;52.418;20.742;2023-02-24T03:11:36;99625.75;;;7.26;64.30
75172;BME280;63750;52.418;20.742;2023-02-24T03:14:05;99622.43;;;7.29;64.41
75172;BME280;63750;52.418;20.742;2023-02-24T03:16:34;99624.67;;;7.32;64.56
75172;BME280;63750;52.418;20.742;2023-02-24T03:19:04;99621.45;;;7.33;64.97
75172;BME280;63750;52.418;20.742;2023-02-24T03:21:36;99616.45;;;7.27;65.25
75172;BME280;63750;52.418;20.742;2023-02-24T03:24:06;99612.78;;;7.29;65.34
75172;BME280;63750;52.418;20.742;2023-02-24T03:26:39;99605.48;;;7.28;65.70
75172;BME280;63750;52.418;20.742;2023-02-24T03:29:12;99606.30;;;7.27;65.63
75172;BME280;63750;52.418;20.742;2023-02-24T03:31:45;99603.97;;;7.25;66.11
75172;BME280;63750;52.418;20.742;2023-02-24T03:34:18;99602.50;;;7.26;65.97
75172;BME280;63750;52.418;20.742;2023-02-24T03:36:48;99602.19;;;7.24;66.17
75172;BME280;63750;52.418;20.742;2023-02-24T03:39:15;99600.39;;;7.22;66.28
75172;BME280;63750;52.418;20.742;2023-02-24T03:42:14;99599.40;;;7.23;66.44
75172;BME280;63750;52.418;20.742;2023-02-24T03:44:43;99595.11;;;7.22;66.49
75172;BME280;63750;52.418;20.742;2023-02-24T03:47:11;99593.77;;;7.25;66.79
75172;BME280;63750;52.418;20.742;2023-02-24T03:49:39;99594.58;;;7.29;66.87
75172;BME280;63750;52.418;20.742;2023-02-24T03:52:12;99592.49;;;7.33;66.94
75172;BME280;63750;52.418;20.742;2023-02-24T03:54:55;99589.77;;;7.36;67.03
75172;BME280;63750;52.418;20.742;2023-02-24T03:57:30;99583.19;;;7.41;67.08
75172;BME280;63750;52.418;20.742;2023-02-24T04:00:04;99578.67;;;7.44;67.21
75172;BME280;63750;52.418;20.742;2023-02-24T04:02:34;99578.52;;;7.48;67.39
75172;BME280;63750;52.418;20.742;2023-02-24T04:05:08;99575.33;;;7.48;67.31
75172;BME280;63750;52.418;20.742;2023-02-24T04:07:42;99570.09;;;7.47;67.60
75172;BME280;63750;52.418;20.742;2023-02-24T04:10:16;99564.76;;;7.50;67.61
75172;BME280;63750;52.418;20.742;2023-02-24T04:12:50;99563.42;;;7.53;67.62
75172;BME280;63750;52.418;20.742;2023-02-24T04:15:22;99563.27;;;7.51;68.13
75172;BME280;63750;52.418;20.742;2023-02-24T04:17:54;99560.28;;;7.51;67.95
75172;BME280;63750;52.418;20.742;2023-02-24T04:20:25;99551.15;;;7.53;68.11
75172;BME280;63750;52.418;20.742;2023-02-24T04:22:58;99548.05;;;7.56;68.17
75172;BME280;63750;52.418;20.742;2023-02-24T04:25:28;99542.59;;;7.58;68.10
75172;BME280;63750;52.418;20.742;2023-02-24T04:27:58;99539.54;;;7.60;68.24
75172;BME280;63750;52.418;20.742;2023-02-24T04:30:30;99539.10;;;7.61;68.51
75172;BME280;63750;52.418;20.742;2023-02-24T04:32:58;99539.68;;;7.62;68.41
75172;BME280;63750;52.418;20.742;2023-02-24T04:35:26;99534.38;;;7.62;68.96
75172;BME280;63750;52.418;20.742;2023-02-24T04:37:53;99532.39;;;7.59;69.19
75172;BME280;63750;52.418;20.742;2023-02-24T04:40:21;99532.84;;;7.60;69.28
75172;BME280;63750;52.418;20.742;2023-02-24T04:42:50;99530.86;;;7.58;69.30
75172;BME280;63750;52.418;20.742;2023-02-24T04:45:19;99527.30;;;7.61;69.36
75172;BME280;63750;52.418;20.742;2023-02-24T04:47:48;99528.77;;;7.62;69.69
75172;BME280;63750;52.418;20.742;2023-02-24T04:50:17;99527.98;;;7.65;69.47
75172;BME280;63750;52.418;20.742;2023-02-24T04:52:46;99525.45;;;7.67;69.54
75172;BME280;63750;52.418;20.742;2023-02-24T04:55:13;99517.11;;;7.72;69.57
75172;BME280;63750;52.418;20.742;2023-02-24T04:57:47;99513.05;;;7.75;69.86
75172;BME280;63750;52.418;20.742;2023-02-24T05:00:17;99509.38;;;7.81;69.44
75172;BME280;63750;52.418;20.742;2023-02-24T05:02:46;99504.98;;;7.85;69.71
75172;BME280;63750;52.418;20.742;2023-02-24T05:05:25;99501.39;;;7.93;69.82
75172;BME280;63750;52.418;20.742;2023-02-24T05:08:01;99502.02;;;8.03;69.86
75172;BME280;63750;52.418;20.742;2023-02-24T05:10:34;99498.80;;;8.09;70.08
75172;BME280;63750;52.418;20.742;2023-02-24T05:13:01;99488.61;;;8.19;69.70
75172;BME280;63750;52.418;20.742;2023-02-24T05:15:30;99485.20;;;8.19;69.68
75172;BME280;63750;52.418;20.742;2023-02-24T05:17:58;99487.63;;;8.18;69.13
75172;BME280;63750;52.418;20.742;2023-02-24T05:20:26;99486.86;;;8.17;69.01
75172;BME280;63750;52.418;20.742;2023-02-24T05:22:53;99488.78;;;8.13;69.27
75172;BME280;63750;52.418;20.742;2023-02-24T05:25:21;99491.84;;;8.10;69.39
75172;BME280;63750;52.418;20.742;2023-02-24T05:27:48;99485.19;;;8.10;69.40
75172;BME280;63750;52.418;20.742;2023-02-24T05:30:16;99481.27;;;8.12;69.52
75172;BME280;63750;52.418;20.742;2023-02-24T05:32:47;99482.20;;;8.13;69.46
75172;BME280;63750;52.418;20.742;2023-02-24T05:35:22;99487.15;;;8.09;69.59
75172;BME280;63750;52.418;20.742;2023-02-24T05:37:50;99487.74;;;8.07;69.58
75172;BME280;63750;52.418;20.742;2023-02-24T05:40:19;99490.01;;;8.07;69.92
75172;BME280;63750;52.418;20.742;2023-02-24T05:42:47;99489.75;;;8.08;69.92
75172;BME280;63750;52.418;20.742;2023-02-24T05:45:28;99491.27;;;8.09;69.88
75172;BME280;63750;52.418;20.742;2023-02-24T05:48:04;99485.21;;;8.09;69.92
75172;BME280;63750;52.418;20.742;2023-02-24T05:50:34;99486.35;;;8.10;70.14
75172;BME280;63750;52.418;20.742;2023-02-24T05:53:01;99483.10;;;8.13;70.16
75172;BME280;63750;52.418;20.742;2023-02-24T05:55:28;99480.55;;;8.16;70.12
75172;BME280;63750;52.418;20.742;2023-02-24T05:58:03;99482.00;;;8.19;70.13
75172;BME280;63750;52.418;20.742;2023-02-24T06:00:33;99481.36;;;8.22;70.09
75172;BME280;63750;52.418;20.742;2023-02-24T06:03:03;99478.09;;;8.25;70.32
75172;BME280;63750;52.418;20.742;2023-02-24T06:05:30;99475.53;;;8.28;70.36
75172;BME280;63750;52.418;20.742;2023-02-24T06:07:58;99476.36;;;8.29;70.29
75172;BME280;63750;52.418;20.742;2023-02-24T06:10:41;99472.36;;;8.26;70.24
75172;BME280;63750;52.418;20.742;2023-02-24T06:13:19;99466.70;;;8.25;70.50
75172;BME280;63750;52.418;20.742;2023-02-24T06:15:46;99466.56;;;8.26;70.51
75172;BME280;63750;52.418;20.742;2023-02-24T06:18:14;99461.85;;;8.29;70.45
75172;BME280;63750;52.418;20.742;2023-02-24T06:20:41;99459.92;;;8.31;70.51
75172;BME280;63750;52.418;20.742;2023-02-24T06:23:09;99462.23;;;8.34;70.43
75172;BME280;63750;52.418;20.742;2023-02-24T06:25:36;99461.22;;;8.38;70.72
75172;BME280;63750;52.418;20.742;2023-02-24T06:28:04;99457.81;;;8.40;70.73
75172;BME280;63750;52.418;20.742;2023-02-24T06:30:31;99455.81;;;8.39;70.74
75172;BME280;63750;52.418;20.742;2023-02-24T06:32:58;99453.36;;;8.39;70.56
75172;BME280;63750;52.418;20.742;2023-02-24T06:35:27;99457.14;;;8.40;70.63
75172;BME280;63750;52.418;20.742;2023-02-24T06:37:54;99456.20;;;8.40;70.68
75172;BME280;63750;52.418;20.742;2023-02-24T06:40:22;99455.41;;;8.41;70.91
75172;BME280;63750;52.418;20.742;2023-02-24T06:42:51;99451.48;;;8.43;70.91
75172;BME280;63750;52.418;20.742;2023-02-24T06:45:19;99448.87;;;8.43;70.74
75172;BME280;63750;52.418;20.742;2023-02-24T06:47:46;99452.69;;;8.44;70.68
75172;BME280;63750;52.418;20.742;2023-02-24T06:50:14;99448.04;;;8.48;70.92
75172;BME280;63750;52.418;20.742;2023-02-24T06:52:42;99442.52;;;8.48;70.89
75172;BME280;63750;52.418;20.742;2023-02-24T06:55:10;99440.70;;;8.51;71.11
75172;BME280;63750;52.418;20.742;2023-02-24T06:57:38;99444.48;;;8.54;70.86
75172;BME280;63750;52.418;20.742;2023-02-24T07:00:08;99447.52;;;8.56;71.17
75172;BME280;63750;52.418;20.742;2023-02-24T07:02:37;99444.03;;;8.57;70.93
75172;BME280;63750;52.418;20.742;2023-02-24T07:05:05;99439.68;;;8.58;71.07
75172;BME280;63750;52.418;20.742;2023-02-24T07:07:32;99444.96;;;8.62;71.28
75172;BME280;63750;52.418;20.742;2023-02-24T07:10:00;99442.31;;;8.63;71.06
75172;BME280;63750;52.418;20.742;2023-02-24T07:12:27;99436.59;;;8.64;71.29
75172;BME280;63750;52.418;20.742;2023-02-24T07:14:57;99437.33;;;8.68;71.11
75172;BME280;63750;52.418;20.742;2023-02-24T07:17:24;99438.54;;;8.66;71.19
75172;BME280;63750;52.418;20.742;2023-02-24T07:19:52;99432.74;;;8.66;71.49
75172;BME280;63750;52.418;20.742;2023-02-24T07:22:19;99430.53;;;8.67;71.52
75172;BME280;63750;52.418;20.742;2023-02-24T07:24:46;99428.14;;;8.68;71.38
75172;BME280;63750;52.418;20.742;2023-02-24T07:27:15;99423.41;;;8.69;71.46
75172;BME280;63750;52.418;20.742;2023-02-24T07:29:42;99420.96;;;8.69;71.64
75172;BME280;63750;52.418;20.742;2023-02-24T07:32:10;99420.02;;;8.71;71.79
75172;BME280;63750;52.418;20.742;2023-02-24T07:34:38;99422.52;;;8.73;71.63
75172;BME280;63750;52.418;20.742;2023-02-24T07:37:05;99418.88;;;8.74;71.74
75172;BME280;63750;52.418;20.742;2023-02-24T07:39:34;99417.09;;;8.74;71.91
75172;BME280;63750;52.418;20.742;2023-02-24T07:42:02;99413.09;;;8.74;72.03
75172;BME280;63750;52.418;20.742;2023-02-24T07:44:30;99409.46;;;8.73;71.98
75172;BME280;63750;52.418;20.742;2023-02-24T07:46:57;99405.92;;;8.71;71.75
75172;BME280;63750;52.418;20.742;2023-02-24T07:49:25;99409.95;;;8.69;72.19
75172;BME280;63750;52.418;20.742;2023-02-24T07:51:53;99408.56;;;8.67;72.20
75172;BME280;63750;52.418;20.742;2023-02-24T07:54:22;99409.79;;;8.69;72.19
75172;BME280;63750;52.418;20.742;2023-02-24T07:56:51;99403.98;;;8.71;72.44
75172;BME280;63750;52.418;20.742;2023-02-24T07:59:18;99402.72;;;8.71;72.36
75172;BME280;63750;52.418;20.742;2023-02-24T08:01:45;99397.88;;;8.72;72.07
75172;BME280;63750;52.418;20.742;2023-02-24T08:04:13;99400.48;;;8.74;72.51
75172;BME280;63750;52.418;20.742;2023-02-24T08:06:41;99402.02;;;8.78;72.56
75172;BME280;63750;52.418;20.742;2023-02-24T08:09:11;99396.84;;;8.75;72.68
75172;BME280;63750;52.418;20.742;2023-02-24T08:11:38;99391.84;;;8.76;72.66
75172;BME280;63750;52.418;20.742;2023-02-24T08:14:06;99394.81;;;8.76;72.44
75172;BME280;63750;52.418;20.742;2023-02-24T08:16:33;99391.20;;;8.74;72.76
75172;BME280;63750;52.418;20.742;2023-02-24T08:19:00;99388.65;;;8.74;72.55
75172;BME280;63750;52.418;20.742;2023-02-24T08:21:28;99386.52;;;8.78;72.50
75172;BME280;63750;52.418;20.742;2023-02-24T08:23:55;99389.11;;;8.78;72.31
75172;BME280;63750;52.418;20.742;2023-02-24T08:26:22;99386.79;;;8.80;72.66
75172;BME280;63750;52.418;20.742;2023-02-24T08:28:50;99381.48;;;8.80;72.73
75172;BME280;63750;52.418;20.742;2023-02-24T08:31:17;99385.70;;;8.81;72.39
75172;BME280;63750;52.418;20.742;2023-02-24T08:33:44;99383.98;;;8.82;72.27
75172;BME280;63750;52.418;20.742;2023-02-24T08:36:14;99382.80;;;8.82;72.75
75172;BME280;63750;52.418;20.742;2023-02-24T08:38:41;99378.48;;;8.81;72.33
75172;BME280;63750;52.418;20.742;2023-02-24T08:41:14;99378.09;;;8.79;72.20
75172;BME280;63750;52.418;20.742;2023-02-24T08:43:42;99374.63;;;8.80;72.63
75172;BME280;63750;52.418;20.742;2023-02-24T08:46:16;99367.80;;;8.83;72.32
75172;BME280;63750;52.418;20.742;2023-02-24T08:48:46;99362.80;;;8.86;72.45
75172;BME280;63750;52.418;20.742;2023-02-24T08:51:15;99362.25;;;8.90;72.48
75172;BME280;63750;52.418;20.742;2023-02-24T08:53:44;99358.77;;;8.91;72.70
75172;BME280;63750;52.418;20.742;2023-02-24T08:56:14;99358.90;;;8.91;72.73
75172;BME280;63750;52.418;20.742;2023-02-24T08:58:43;99352.38;;;8.91;72.48
75172;BME280;63750;52.418;20.742;2023-02-24T09:01:16;99352.18;;;8.90;72.51
75172;BME280;63750;52.418;20.742;2023-02-24T09:03:45;99347.98;;;8.90;72.50
75172;BME280;63750;52.418;20.742;2023-02-24T09:06:14;99347.30;;;8.89;72.21
75172;BME280;63750;52.418;20.742;2023-02-24T09:08:44;99345.12;;;8.90;72.23
75172;BME280;63750;52.418;20.742;2023-02-24T09:11:14;99344.80;;;8.88;72.73
75172;BME280;63750;52.418;20.742;2023-02-24T09:13:43;99345.11;;;8.90;72.33
75172;BME280;63750;52.418;20.742;2023-02-24T09:16:13;99341.48;;;8.89;72.21
75172;BME280;63750;52.418;20.742;2023-02-24T09:18:40;99339.48;;;8.88;72.23
75172;BME280;63750;52.418;20.742;2023-02-24T09:21:09;99337.23;;;8.88;72.15
75172;BME280;63750;52.418;20.742;2023-02-24T09:23:37;99329.16;;;8.89;72.60
75172;BME280;63750;52.418;20.742;2023-02-24T09:26:04;99336.08;;;8.89;72.14
75172;BME280;63750;52.418;20.742;2023-02-24T09:28:33;99333.20;;;8.89;72.47
75172;BME280;63750;52.418;20.742;2023-02-24T09:31:01;99331.06;;;8.87;72.33
75172;BME280;63750;52.418;20.742;2023-02-24T09:33:30;99324.59;;;8.87;72.19
75172;BME280;63750;52.418;20.742;2023-02-24T09:36:00;99322.35;;;8.84;72.26
75172;BME280;63750;52.418;20.742;2023-02-24T09:38:27;99320.09;;;8.84;72.49
75172;BME280;63750;52.418;20.742;2023-02-24T09:40:55;99320.09;;;8.83;72.36
75172;BME280;63750;52.418;20.742;2023-02-24T09:43:25;99316.31;;;8.81;72.06
75172;BME280;63750;52.418;20.742;2023-02-24T09:45:58;99317.26;;;8.82;72.36
75172;BME280;63750;52.418;20.742;2023-02-24T09:48:34;99319.35;;;8.82;72.06
75172;BME280;63750;52.418;20.742;2023-02-24T09:51:05;99320.66;;;8.87;72.27
75172;BME280;63750;52.418;20.742;2023-02-24T09:53:34;99316.37;;;8.89;72.19
75172;BME280;63750;52.418;20.742;2023-02-24T09:56:06;99314.73;;;8.90;72.04
75172;BME280;63750;52.418;20.742;2023-02-24T09:58:43;99310.45;;;8.90;72.23
75172;BME280;63750;52.418;20.742;2023-02-24T10:01:24;99309.29;;;8.90;71.96
75172;BME280;63750;52.418;20.742;2023-02-24T10:03:58;99308.75;;;8.90;72.30
75172;BME280;63750;52.418;20.742;2023-02-24T10:06:29;99312.23;;;8.92;72.13
75172;BME280;63750;52.418;20.742;2023-02-24T10:09:00;99305.11;;;8.92;71.77
75172;BME280;63750;52.418;20.742;2023-02-24T10:11:29;99302.25;;;8.96;71.91
75172;BME280;63750;52.418;20.742;2023-02-24T10:13:57;99302.23;;;8.98;71.64
75172;BME280;63750;52.418;20.742;2023-02-24T10:16:27;99301.66;;;9.00;71.43
75172;BME280;63750;52.418;20.742;2023-02-24T10:18:59;99294.96;;;9.00;71.57
75172;BME280;63750;52.418;20.742;2023-02-24T10:21:35;99293.95;;;8.98;71.64
75172;BME280;63750;52.418;20.742;2023-02-24T10:24:10;99281.88;;;8.97;71.57
75172;BME280;63750;52.418;20.742;2023-02-24T10:26:44;99280.70;;;8.94;71.54
75172;BME280;63750;52.418;20.742;2023-02-24T10:29:22;99271.59;;;8.95;71.51
75172;BME280;63750;52.418;20.742;2023-02-24T10:32:05;99264.33;;;8.97;71.60
75172;BME280;63750;52.418;20.742;2023-02-24T10:34:35;99264.15;;;8.99;71.57
75172;BME280;63750;52.418;20.742;2023-02-24T10:37:12;99264.82;;;9.03;71.60
75172;BME280;63750;52.418;20.742;2023-02-24T10:39:39;99261.89;;;9.02;71.11
75172;BME280;63750;52.418;20.742;2023-02-24T10:42:07;99257.56;;;9.00;71.30
75172;BME280;63750;52.418;20.742;2023-02-24T10:44:34;99253.47;;;8.98;71.14
75172;BME280;63750;52.418;20.742;2023-02-24T10:47:04;99248.77;;;8.98;71.19
75172;BME280;63750;52.418;20.742;2023-02-24T10:49:39;99246.83;;;8.99;71.07
75172;BME280;63750;52.418;20.742;2023-02-24T10:52:08;99244.75;;;9.01;71.04
75172;BME280;63750;52.418;20.742;2023-02-24T10:54:37;99244.33;;;9.01;70.97
75172;BME280;63750;52.418;20.742;2023-02-24T10:57:06;99239.85;;;8.97;70.77
75172;BME280;63750;52.418;20.742;2023-02-24T10:59:46;99236.33;;;8.96;70.89
75172;BME280;63750;52.418;20.742;2023-02-24T11:02:18;99231.92;;;8.93;70.87
75172;BME280;63750;52.418;20.742;2023-02-24T11:04:45;99225.04;;;8.90;70.73
75172;BME280;63750;52.418;20.742;2023-02-24T11:07:14;99221.58;;;8.89;70.82
75172;BME280;63750;52.418;20.742;2023-02-24T11:09:42;99218.86;;;8.84;71.07
75172;BME280;63750;52.418;20.742;2023-02-24T11:12:14;99216.79;;;8.86;70.63
75172;BME280;63750;52.418;20.742;2023-02-24T11:14:50;99214.52;;;8.87;70.80
75172;BME280;63750;52.418;20.742;2023-02-24T11:17:20;99211.85;;;8.85;70.84
75172;BME280;63750;52.418;20.742;2023-02-24T11:19:57;99206.71;;;8.89;71.09
75172;BME280;63750;52.418;20.742;2023-02-24T11:22:29;99203.27;;;8.90;71.01
75172;BME280;63750;52.418;20.742;2023-02-24T11:24:59;99194.70;;;8.89;71.28
75172;BME280;63750;52.418;20.742;2023-02-24T11:27:30;99189.97;;;8.91;70.77
75172;BME280;63750;52.418;20.742;2023-02-24T11:30:08;99182.69;;;8.98;71.27
75172;BME280;63750;52.418;20.742;2023-02-24T11:35:32;99168.97;;;9.17;71.13
75172;BME280;63750;52.418;20.742;2023-02-24T11:38:07;99164.37;;;9.23;70.94
75172;BME280;63750;52.418;20.742;2023-02-24T11:40:40;99158.45;;;9.29;70.76
75172;BME280;63750;52.418;20.742;2023-02-24T11:43:12;99157.11;;;9.33;70.60
75172;BME280;63750;52.418;20.742;2023-02-24T11:45:44;99153.77;;;9.31;70.63
75172;BME280;63750;52.418;20.742;2023-02-24T11:48:15;99146.61;;;9.32;70.69
75172;BME280;63750;52.418;20.742;2023-02-24T11:50:48;99143.80;;;9.34;70.47
75172;BME280;63750;52.418;20.742;2023-02-24T11:53:25;99143.60;;;9.32;70.55
75172;BME280;63750;52.418;20.742;2023-02-24T11:55:58;99141.23;;;9.31;70.57
75172;BME280;63750;52.418;20.742;2023-02-24T11:58:33;99141.27;;;9.31;70.27
75172;BME280;63750;52.418;20.742;2023-02-24T12:01:09;99145.36;;;9.30;70.13
75172;BME280;63750;52.418;20.742;2023-02-24T12:03:47;99144.98;;;9.31;70.52
75172;BME280;63750;52.418;20.742;2023-02-24T12:06:20;99143.14;;;9.28;70.44
75172;BME280;63750;52.418;20.742;2023-02-24T12:08:52;99140.86;;;9.30;70.08
75172;BME280;63750;52.418;20.742;2023-02-24T12:11:33;99141.05;;;9.28;70.04
75172;BME280;63750;52.418;20.742;2023-02-24T12:14:15;99140.36;;;9.26;69.95
75172;BME280;63750;52.418;20.742;2023-02-24T12:16:47;99130.20;;;9.20;70.07
75172;BME280;63750;52.418;20.742;2023-02-24T12:19:25;99123.21;;;9.23;69.99
75172;BME280;63750;52.418;20.742;2023-02-24T12:22:00;99122.52;;;9.22;69.75
75172;BME280;63750;52.418;20.742;2023-02-24T12:24:29;99116.23;;;9.18;69.70
75172;BME280;63750;52.418;20.742;2023-02-24T12:27:04;99111.55;;;9.17;69.36
75172;BME280;63750;52.418;20.742;2023-02-24T12:29:53;99107.34;;;9.17;69.59
75172;BME280;63750;52.418;20.742;2023-02-24T12:32:33;99102.94;;;9.14;69.70
75172;BME280;63750;52.418;20.742;2023-02-24T12:35:08;99097.98;;;9.10;69.50
75172;BME280;63750;52.418;20.742;2023-02-24T12:37:49;99093.39;;;9.12;69.65
75172;BME280;63750;52.418;20.742;2023-02-24T12:40:31;99098.55;;;9.16;69.93
75172;BME280;63750;52.418;20.742;2023-02-24T12:43:12;99094.40;;;9.16;69.96
75172;BME280;63750;52.418;20.742;2023-02-24T12:45:49;99089.05;;;9.18;69.52
75172;BME280;63750;52.418;20.742;2023-02-24T12:48:30;99090.83;;;9.19;69.48
75172;BME280;63750;52.418;20.742;2023-02-24T12:51:08;99087.39;;;9.20;69.19
75172;BME280;63750;52.418;20.742;2023-02-24T12:53:45;99078.02;;;9.19;69.28
75172;BME280;63750;52.418;20.742;2023-02-24T12:56:20;99071.83;;;9.22;69.27
75172;BME280;63750;52.418;20.742;2023-02-24T12:58:50;99065.70;;;9.25;69.08
75172;BME280;63750;52.418;20.742;2023-02-24T13:01:23;99066.30;;;9.31;69.21
75172;BME280;63750;52.418;20.742;2023-02-24T13:04:14;99061.52;;;9.30;68.79
75172;BME280;63750;52.418;20.742;2023-02-24T13:06:56;99061.98;;;9.27;69.18
75172;BME280;63750;52.418;20.742;2023-02-24T13:09:35;99052.34;;;9.29;68.94
75172;BME280;63750;52.418;20.742;2023-02-24T13:12:14;99052.73;;;9.35;69.16
75172;BME280;63750;52.418;20.742;2023-02-24T13:14:42;99046.89;;;9.45;68.90
75172;BME280;63750;52.418;20.742;2023-02-24T13:17:20;99038.07;;;9.52;68.93
75172;BME280;63750;52.418;20.742;2023-02-24T13:19:48;99038.25;;;9.55;68.74
75172;BME280;63750;52.418;20.742;2023-02-24T13:22:23;99037.21;;;9.53;68.71
75172;BME280;63750;52.418;20.742;2023-02-24T13:25:02;99039.22;;;9.51;68.30
75172;BME280;63750;52.418;20.742;2023-02-24T13:27:36;99040.92;;;9.50;68.82